createdAt,value
2023-05-09T00:01:13.551Z,12.10
2023-05-09T00:04:02.373Z,12.10
2023-05-09T00:06:49.405Z,12.00
2023-05-09T00:09:36.560Z,11.90
2023-05-09T00:12:23.700Z,11.90
2023-05-09T00:15:11.532Z,11.80
2023-05-09T00:17:59.592Z,11.80
2023-05-09T00:20:48.199Z,11.70
2023-05-09T00:23:35.448Z,11.70
2023-05-09T00:26:23.214Z,11.60
2023-05-09T00:29:10.731Z,11.60
2023-05-09T00:31:58.140Z,11.50
2023-05-09T00:34:46.585Z,11.50
2023-05-09T00:37:35.148Z,11.40
2023-05-09T00:40:22.545Z,11.40
2023-05-09T00:43:09.816Z,11.30
2023-05-09T00:45:56.879Z,11.30
2023-05-09T00:48:44.321Z,11.30
2023-05-09T00:51:34.092Z,11.20
2023-05-09T00:54:22.856Z,11.20
2023-05-09T00:57:10.038Z,11.10
2023-05-09T00:59:57.420Z,11.10
2023-05-09T01:02:48.118Z,11.10
2023-05-09T01:05:45.132Z,11.00
2023-05-09T01:08:45.791Z,11.00
2023-05-09T01:11:42.859Z,11.00
2023-05-09T01:14:43.569Z,10.90
2023-05-09T01:17:39.750Z,10.90
2023-05-09T01:20:34.969Z,10.80
2023-05-09T01:23:52.353Z,10.80
2023-05-09T01:26:39.093Z,10.80
2023-05-09T01:29:38.315Z,10.70
2023-05-09T01:32:28.385Z,10.70
2023-05-09T01:35:17.016Z,10.70
2023-05-09T01:38:14.467Z,10.60
2023-05-09T01:41:05.480Z,10.60
2023-05-09T01:43:56.221Z,10.60
2023-05-09T01:46:46.284Z,10.60
2023-05-09T01:49:36.476Z,10.60
2023-05-09T01:52:25.641Z,10.50
2023-05-09T01:55:13.953Z,10.50
2023-05-09T01:58:02.342Z,10.40
2023-05-09T02:00:49.906Z,10.40
2023-05-09T02:03:40.641Z,10.40
2023-05-09T02:06:30.325Z,10.40
2023-05-09T02:09:18.906Z,10.30
2023-05-09T02:12:06.215Z,10.30
2023-05-09T02:14:53.705Z,10.30
2023-05-09T02:17:40.821Z,10.20
2023-05-09T02:20:29.962Z,10.30
2023-05-09T02:23:17.062Z,10.20
2023-05-09T02:26:04.325Z,10.20
2023-05-09T02:28:52.331Z,10.20
2023-05-09T02:31:42.398Z,10.20
2023-05-09T02:34:29.507Z,10.20
2023-05-09T02:37:19.508Z,10.20
2023-05-09T02:40:10.746Z,10.10
2023-05-09T02:42:58.177Z,10.10
2023-05-09T02:45:45.294Z,10.10
2023-05-09T02:48:32.855Z,10.10
2023-05-09T02:51:20.134Z,10.00
2023-05-09T02:54:09.125Z,10.00
2023-05-09T02:56:56.030Z,10.00
2023-05-09T02:59:42.877Z,10.00
2023-05-09T03:02:30.357Z,10.00
2023-05-09T03:05:19.032Z,10.00
2023-05-09T03:08:06.512Z,10.00
2023-05-09T03:10:57.290Z,10.00
2023-05-09T03:13:44.297Z,9.90
2023-05-09T03:16:31.873Z,9.90
2023-05-09T03:19:19.868Z,9.90
2023-05-09T03:22:06.711Z,9.90
2023-05-09T03:24:58.458Z,9.90
2023-05-09T03:27:46.832Z,9.90
2023-05-09T03:30:36.999Z,9.90
2023-05-09T03:33:26.306Z,9.90
2023-05-09T03:36:15.542Z,9.90
2023-05-09T03:39:04.046Z,9.80
2023-05-09T03:41:51.187Z,9.80
2023-05-09T03:44:39.886Z,9.80
2023-05-09T03:47:27.670Z,9.70
2023-05-09T03:50:15.012Z,9.70
2023-05-09T03:53:03.461Z,9.70
2023-05-09T03:55:51.015Z,9.60
2023-05-09T03:58:38.606Z,9.60
2023-05-09T04:01:28.588Z,9.60
2023-05-09T04:04:18.117Z,9.60
2023-05-09T04:07:05.712Z,9.60
2023-05-09T04:09:52.669Z,9.60
2023-05-09T04:12:40.340Z,9.60
2023-05-09T04:15:27.691Z,9.60
2023-05-09T04:18:18.582Z,9.70
2023-05-09T04:21:06.109Z,9.70
2023-05-09T04:23:53.445Z,9.70
2023-05-09T04:26:47.669Z,9.80
2023-05-09T04:29:39.116Z,9.90
2023-05-09T04:32:28.064Z,9.90
2023-05-09T04:35:18.149Z,10.00
2023-05-09T04:38:08.769Z,10.10
2023-05-09T04:40:56.726Z,10.20
2023-05-09T04:43:43.814Z,10.30
2023-05-09T04:46:31.114Z,10.40
2023-05-09T04:49:18.269Z,10.40
2023-05-09T04:52:07.815Z,10.40
2023-05-09T04:54:55.548Z,10.50
2023-05-09T04:57:45.730Z,10.60
2023-05-09T05:00:32.852Z,10.60
2023-05-09T05:03:20.396Z,10.70
2023-05-09T05:06:07.660Z,10.80
2023-05-09T05:08:57.917Z,10.80
2023-05-09T05:11:57.040Z,10.90
2023-05-09T05:14:47.464Z,11.10
2023-05-09T05:17:38.753Z,11.20
2023-05-09T05:20:27.505Z,11.30
2023-05-09T05:23:14.836Z,11.50
2023-05-09T05:26:04.000Z,11.60
2023-05-09T05:28:55.863Z,11.70
2023-05-09T05:31:43.780Z,11.80
2023-05-09T05:34:30.943Z,12.00
2023-05-09T05:37:18.055Z,12.10
2023-05-09T05:40:05.694Z,12.20
2023-05-09T05:42:54.522Z,12.30
2023-05-09T05:45:42.976Z,12.40
2023-05-09T05:48:36.163Z,12.50
2023-05-09T05:51:24.091Z,12.70
2023-05-09T05:54:11.598Z,12.80
2023-05-09T05:56:59.462Z,13.00
2023-05-09T05:59:50.892Z,13.10
2023-05-09T06:02:38.954Z,13.40
2023-05-09T06:05:26.527Z,13.60
2023-05-09T06:08:14.022Z,13.80
2023-05-09T06:11:03.040Z,14.10
2023-05-09T06:13:50.246Z,14.20
2023-05-09T06:16:39.014Z,14.40
2023-05-09T06:19:26.603Z,14.50
2023-05-09T06:22:14.178Z,14.80
2023-05-09T06:25:01.451Z,15.10
2023-05-09T06:27:48.735Z,15.60
2023-05-09T06:30:35.785Z,16.00
2023-05-09T06:33:24.304Z,16.40
2023-05-09T06:36:12.071Z,16.70
2023-05-09T06:38:59.361Z,17.10
2023-05-09T06:41:46.678Z,17.20
2023-05-09T06:44:43.987Z,17.50
2023-05-09T06:47:31.296Z,17.70
2023-05-09T06:50:20.134Z,17.80
2023-05-09T06:53:07.321Z,17.80
2023-05-09T06:55:54.560Z,17.90
2023-05-09T06:58:42.041Z,18.00
2023-05-09T07:01:29.282Z,18.10
2023-05-09T07:04:16.519Z,18.10
2023-05-09T07:07:05.125Z,18.10
2023-05-09T07:09:55.266Z,18.30
2023-05-09T07:12:48.523Z,18.20
2023-05-09T07:15:42.134Z,18.40
2023-05-09T07:18:30.316Z,18.50
2023-05-09T07:21:17.738Z,18.80
2023-05-09T07:24:07.072Z,19.00
2023-05-09T07:26:54.485Z,19.20
2023-05-09T07:29:42.662Z,19.40
2023-05-09T07:32:30.156Z,19.60
2023-05-09T07:35:17.188Z,19.80
2023-05-09T07:38:06.461Z,19.90
2023-05-09T07:40:55.492Z,20.00
2023-05-09T07:43:42.803Z,20.20
2023-05-09T07:46:30.391Z,20.30
2023-05-09T07:49:18.237Z,20.40
2023-05-09T07:52:05.708Z,20.60
2023-05-09T07:54:54.710Z,21.10
2023-05-09T07:57:43.133Z,22.80
2023-05-09T08:00:30.113Z,24.60
2023-05-09T08:03:17.440Z,25.80
2023-05-09T08:06:05.470Z,26.80
2023-05-09T08:08:52.555Z,27.40
2023-05-09T08:11:39.543Z,28.30
2023-05-09T08:14:27.962Z,28.80
2023-05-09T08:17:15.008Z,28.70
2023-05-09T08:20:02.287Z,28.00
2023-05-09T08:22:52.537Z,27.30
2023-05-09T08:25:40.026Z,27.80
2023-05-09T08:28:28.843Z,28.90
2023-05-09T08:31:17.407Z,29.90
2023-05-09T08:34:04.263Z,30.70
2023-05-09T08:36:51.811Z,31.90
2023-05-09T08:39:39.627Z,33.50
2023-05-09T08:42:28.502Z,35.10
2023-05-09T08:45:30.471Z,36.40
2023-05-09T08:48:21.010Z,37.20
2023-05-09T08:51:08.672Z,37.40
2023-05-09T08:54:00.235Z,37.20
2023-05-09T08:56:47.286Z,36.60
2023-05-09T08:59:37.652Z,37.00
2023-05-09T09:02:24.521Z,37.40
2023-05-09T09:05:34.232Z,37.90
2023-05-09T09:08:21.186Z,38.00
2023-05-09T09:11:09.186Z,37.30
2023-05-09T09:13:57.179Z,37.00
2023-05-09T09:16:48.918Z,37.10
2023-05-09T09:19:38.514Z,37.30
2023-05-09T09:22:34.284Z,37.70
2023-05-09T09:25:21.624Z,37.90
2023-05-09T09:28:10.196Z,38.20
2023-05-09T09:30:57.564Z,38.40
2023-05-09T09:33:45.837Z,38.00
2023-05-09T09:36:34.787Z,37.50
2023-05-09T09:39:24.295Z,37.10
2023-05-09T09:42:13.720Z,37.10
2023-05-09T09:45:04.400Z,37.60
2023-05-09T09:47:51.824Z,38.30
2023-05-09T09:50:38.933Z,38.40
2023-05-09T09:53:30.583Z,38.20
2023-05-09T09:56:18.943Z,37.70
2023-05-09T09:59:17.771Z,36.80
2023-05-09T10:02:08.394Z,36.30
2023-05-09T10:04:55.632Z,35.70
2023-05-09T10:07:42.620Z,34.50
2023-05-09T10:10:32.252Z,33.30
2023-05-09T10:13:21.985Z,32.50
2023-05-09T10:16:10.752Z,31.70
2023-05-09T10:18:58.802Z,30.50
2023-05-09T10:21:48.428Z,29.40
2023-05-09T10:24:41.091Z,28.60
2023-05-09T10:27:32.348Z,27.70
2023-05-09T10:30:30.234Z,26.80
2023-05-09T10:33:25.390Z,26.30
2023-05-09T10:36:13.350Z,25.80
2023-05-09T10:39:01.430Z,25.10
2023-05-09T10:41:51.179Z,24.50
2023-05-09T10:44:40.231Z,24.20
2023-05-09T10:47:32.618Z,24.20
2023-05-09T10:50:22.662Z,24.10
2023-05-09T10:53:14.530Z,23.90
2023-05-09T10:56:02.070Z,23.70
2023-05-09T10:58:49.582Z,23.50
2023-05-09T11:01:39.640Z,23.50
2023-05-09T11:04:28.333Z,23.60
2023-05-09T11:07:30.337Z,23.50
2023-05-09T11:10:19.214Z,23.50
2023-05-09T11:13:06.164Z,23.30
2023-05-09T11:16:10.522Z,23.30
2023-05-09T11:18:57.451Z,23.40
2023-05-09T11:24:40.792Z,23.40
2023-05-09T11:27:29.649Z,23.30
2023-05-09T11:30:18.500Z,23.30
2023-05-09T11:33:07.109Z,23.30
2023-05-09T11:36:16.939Z,23.20
2023-05-09T11:39:06.395Z,23.20
2023-05-09T11:41:56.567Z,23.10
2023-05-09T11:44:44.392Z,23.10
2023-05-09T11:47:31.592Z,23.00
2023-05-09T11:50:20.064Z,23.00
2023-05-09T11:53:08.495Z,23.20
2023-05-09T11:55:55.787Z,23.30
2023-05-09T11:58:44.444Z,23.30
2023-05-09T12:01:32.369Z,23.30
2023-05-09T12:04:19.170Z,23.30
2023-05-09T12:07:06.517Z,23.30
2023-05-09T12:09:53.536Z,23.30
2023-05-09T12:12:45.318Z,23.40
2023-05-09T12:15:39.034Z,23.40
2023-05-09T12:18:25.834Z,23.40
2023-05-09T12:21:13.578Z,23.50
2023-05-09T12:24:00.785Z,23.70
2023-05-09T12:26:48.565Z,23.70
2023-05-09T12:29:36.273Z,23.80
2023-05-09T12:32:25.352Z,23.80
2023-05-09T12:35:12.704Z,23.90
2023-05-09T12:38:00.575Z,24.00
2023-05-09T12:40:49.903Z,24.00
2023-05-09T12:43:39.717Z,24.10
2023-05-09T12:46:27.448Z,24.00
2023-05-09T12:49:23.046Z,24.10
2023-05-09T12:52:20.628Z,24.10
2023-05-09T12:55:09.456Z,24.30
2023-05-09T12:58:01.673Z,24.50
2023-05-09T13:00:49.273Z,24.70
2023-05-09T13:03:38.935Z,24.70
2023-05-09T13:06:27.550Z,24.60
2023-05-09T13:09:15.021Z,24.40
2023-05-09T13:12:03.052Z,24.20
2023-05-09T13:14:50.199Z,24.20
2023-05-09T13:17:37.705Z,24.30
2023-05-09T13:20:24.923Z,24.50
2023-05-09T13:23:13.102Z,24.60
2023-05-09T13:26:00.159Z,24.60
2023-05-09T13:28:47.248Z,24.40
2023-05-09T13:31:34.730Z,24.50
2023-05-09T13:34:21.636Z,24.70
2023-05-09T13:37:09.291Z,24.80
2023-05-09T13:39:57.774Z,24.80
2023-05-09T13:42:45.112Z,24.70
2023-05-09T13:45:32.279Z,24.80
2023-05-09T13:48:19.701Z,24.70
2023-05-09T13:51:07.995Z,24.60
2023-05-09T13:53:55.733Z,24.50
2023-05-09T13:56:44.753Z,24.30
2023-05-09T13:59:32.761Z,24.30
2023-05-09T14:02:20.177Z,24.40
2023-05-09T14:05:07.890Z,24.30
2023-05-09T14:07:55.775Z,24.30
2023-05-09T14:10:43.042Z,24.30
2023-05-09T14:13:32.061Z,24.50
2023-05-09T14:16:19.496Z,24.60
2023-05-09T14:19:07.317Z,24.60
2023-05-09T14:21:54.814Z,24.60
2023-05-09T14:24:41.964Z,24.40
2023-05-09T14:27:29.042Z,24.30
2023-05-09T14:30:18.367Z,24.30
2023-05-09T14:33:05.749Z,24.30
2023-05-09T14:35:53.741Z,24.30
2023-05-09T14:38:41.898Z,24.20
2023-05-09T14:41:29.312Z,24.10
2023-05-09T14:44:16.814Z,24.20
2023-05-09T14:47:05.600Z,24.40
2023-05-09T14:49:52.925Z,24.40
2023-05-09T14:52:40.424Z,24.30
2023-05-09T14:55:28.225Z,24.10
2023-05-09T14:58:16.265Z,24.10
2023-05-09T15:01:04.345Z,23.90
2023-05-09T15:03:52.881Z,23.70
2023-05-09T15:06:41.159Z,23.70
2023-05-09T15:09:28.210Z,23.70
2023-05-09T15:12:15.198Z,23.60
2023-05-09T15:15:14.553Z,23.50
2023-05-09T15:18:02.525Z,23.50
2023-05-09T15:20:52.720Z,23.50
2023-05-09T15:23:40.569Z,23.40
2023-05-09T15:26:27.721Z,23.20
2023-05-09T15:29:16.311Z,23.00
2023-05-09T15:32:05.129Z,22.90
2023-05-09T15:34:52.903Z,22.90
2023-05-09T15:37:41.842Z,22.80
2023-05-09T15:40:29.498Z,22.70
2023-05-09T15:43:16.673Z,22.50
2023-05-09T15:46:03.982Z,22.60
2023-05-09T15:48:52.440Z,22.50
2023-05-09T15:51:40.835Z,22.40
2023-05-09T15:54:29.228Z,22.30
2023-05-09T15:57:17.017Z,22.20
2023-05-09T16:00:05.677Z,22.20
2023-05-09T16:03:00.082Z,22.20
2023-05-09T16:05:47.435Z,22.10
2023-05-09T16:08:34.653Z,22.10
2023-05-09T16:11:23.372Z,22.10
2023-05-09T16:14:11.927Z,22.00
2023-05-09T16:16:59.128Z,21.90
2023-05-09T16:19:46.276Z,21.90
2023-05-09T16:22:33.613Z,21.90
2023-05-09T16:25:20.648Z,21.80
2023-05-09T16:28:09.426Z,21.80
2023-05-09T16:30:56.611Z,21.70
2023-05-09T16:33:44.261Z,21.80
2023-05-09T16:36:32.792Z,21.80
2023-05-09T16:39:20.166Z,21.80
2023-05-09T16:42:07.206Z,21.70
2023-05-09T16:44:57.126Z,21.60
2023-05-09T16:47:44.495Z,21.50
2023-05-09T16:50:32.287Z,21.40
2023-05-09T16:53:19.858Z,21.40
2023-05-09T16:56:08.124Z,21.30
2023-05-09T16:58:55.078Z,21.20
2023-05-09T17:01:43.800Z,21.10
2023-05-09T17:04:31.031Z,21.10
2023-05-09T17:07:18.112Z,21.10
2023-05-09T17:10:05.604Z,21.10
2023-05-09T17:12:52.700Z,21.00
2023-05-09T17:15:39.947Z,21.00
2023-05-09T17:18:36.754Z,21.00
2023-05-09T17:21:25.428Z,21.00
2023-05-09T17:24:12.786Z,20.90
2023-05-09T17:27:00.056Z,20.90
2023-05-09T17:57:52.814Z,20.30
2023-05-09T18:00:40.002Z,20.20
2023-05-09T18:03:29.986Z,20.10
2023-05-09T18:06:17.796Z,20.00
2023-05-09T18:09:07.381Z,20.00
2023-05-09T18:11:54.775Z,19.90
2023-05-09T18:14:42.089Z,19.80
2023-05-09T18:17:29.474Z,19.70
2023-05-09T18:20:16.937Z,19.60
2023-05-09T18:23:04.496Z,19.60
2023-05-09T18:25:54.139Z,19.50
2023-05-09T18:28:41.490Z,19.50
2023-05-09T18:31:28.674Z,19.40
2023-05-09T18:34:16.002Z,19.30
2023-05-09T18:37:03.346Z,19.30
2023-05-09T18:39:50.510Z,19.20
2023-05-09T18:42:39.205Z,19.20
2023-05-09T18:45:26.757Z,19.10
2023-05-09T18:48:13.866Z,19.10
2023-05-09T18:51:00.890Z,19.00
2023-05-09T18:53:48.665Z,19.00
2023-05-09T18:56:39.583Z,19.00
2023-05-09T18:59:28.287Z,19.00
2023-05-09T19:02:15.291Z,18.90
2023-05-09T19:05:06.429Z,18.80
2023-05-09T19:07:54.254Z,18.80
2023-05-09T19:10:41.449Z,18.80
2023-05-09T19:13:29.202Z,18.70
2023-05-09T19:16:20.634Z,18.70
2023-05-09T19:19:08.052Z,18.60
2023-05-09T19:21:56.554Z,18.60
2023-05-09T19:24:43.964Z,18.50
2023-05-09T19:27:30.824Z,18.50
2023-05-09T19:30:19.050Z,18.40
2023-05-09T19:33:08.391Z,18.30
2023-05-09T19:35:55.896Z,18.30
2023-05-09T19:38:43.085Z,18.30
2023-05-09T19:41:30.483Z,18.20
2023-05-09T19:44:17.443Z,18.20
2023-05-09T19:47:05.459Z,18.20
2023-05-09T19:49:53.717Z,18.10
2023-05-09T19:52:41.186Z,18.10
2023-05-09T19:55:28.454Z,18.10
2023-05-09T19:58:17.748Z,18.00
2023-05-09T20:01:07.337Z,18.10
2023-05-09T20:03:54.712Z,18.00
2023-05-09T20:06:43.027Z,18.00
2023-05-09T20:09:32.393Z,18.00
2023-05-09T20:12:19.500Z,17.90
2023-05-09T20:15:08.299Z,17.90
2023-05-09T20:17:56.394Z,17.90
2023-05-09T20:20:44.166Z,17.90
2023-05-09T20:23:32.620Z,17.90
2023-05-09T20:26:19.595Z,17.90
2023-05-09T20:29:07.951Z,17.90
2023-05-09T20:31:55.036Z,17.90
2023-05-09T20:34:42.204Z,18.00
2023-05-09T20:37:29.049Z,18.00
2023-05-09T20:40:17.658Z,18.00
2023-05-09T20:43:05.598Z,18.00
2023-05-09T20:45:53.671Z,18.00
2023-05-09T20:48:40.525Z,18.00
2023-05-09T20:51:27.908Z,18.00
2023-05-09T20:54:15.028Z,17.90
2023-05-09T20:57:03.768Z,17.90
2023-05-09T20:59:50.693Z,17.90
2023-05-09T21:02:37.840Z,17.90
2023-05-09T21:05:25.007Z,17.90
2023-05-09T21:08:13.002Z,17.80
2023-05-09T21:10:59.953Z,17.80
2023-05-09T21:13:48.651Z,17.80
2023-05-09T21:16:35.780Z,17.80
2023-05-09T21:19:22.786Z,17.70
2023-05-09T21:22:10.109Z,17.60
2023-05-09T21:24:57.078Z,17.50
2023-05-09T21:27:44.769Z,17.40
2023-05-09T21:30:33.152Z,17.30
2023-05-09T21:33:20.314Z,17.20
2023-05-09T21:36:07.715Z,17.10
2023-05-09T21:38:54.984Z,16.90
2023-05-09T21:41:43.358Z,16.80
2023-05-09T21:44:30.714Z,16.70
2023-05-09T21:47:19.386Z,16.70
2023-05-09T21:50:07.190Z,16.60
2023-05-09T21:52:56.558Z,16.50
2023-05-09T21:55:43.370Z,16.40
2023-05-09T21:58:30.639Z,16.40
2023-05-09T22:01:19.570Z,16.30
2023-05-09T22:04:08.541Z,16.30
2023-05-09T22:06:55.668Z,16.20
2023-05-09T22:09:42.651Z,16.20
2023-05-09T22:12:29.606Z,16.20
2023-05-09T22:18:04.366Z,16.20
2023-05-09T22:20:53.372Z,16.20
2023-05-09T22:23:40.476Z,16.10
2023-05-09T22:26:27.719Z,16.10
2023-05-09T22:29:17.750Z,16.10
2023-05-09T22:32:07.727Z,16.10
2023-05-09T22:34:55.389Z,16.10
2023-05-09T22:37:43.721Z,16.00
2023-05-09T22:40:31.676Z,16.00
2023-05-09T22:43:20.502Z,15.90
2023-05-09T22:46:07.846Z,15.90
2023-05-09T22:48:55.229Z,15.80
2023-05-09T22:51:42.303Z,15.80
2023-05-09T22:54:30.998Z,15.80
2023-05-09T22:57:20.838Z,15.80
2023-05-09T23:00:08.825Z,15.80
2023-05-09T23:02:55.937Z,15.80
2023-05-09T23:05:44.077Z,15.70
2023-05-09T23:08:31.190Z,15.70
2023-05-09T23:11:20.519Z,15.70
2023-05-09T23:14:07.652Z,15.70
2023-05-09T23:16:56.211Z,15.70
2023-05-09T23:19:43.356Z,15.70
2023-05-09T23:25:18.236Z,15.70
2023-05-09T23:28:06.878Z,15.70
2023-05-09T23:30:55.767Z,15.70
2023-05-09T23:33:44.086Z,15.60
2023-05-09T23:36:31.573Z,15.60
2023-05-09T23:39:18.535Z,15.60
2023-05-09T23:42:05.581Z,15.60
2023-05-09T23:44:54.210Z,15.50
2023-05-09T23:47:41.671Z,15.60
2023-05-09T23:50:28.860Z,15.50
2023-05-09T23:53:16.722Z,15.50
2023-05-09T23:56:04.159Z,15.50
2023-05-09T23:58:51.388Z,15.50
